Marion, Arkansas
Current Conditions -  °F | °C
As of 4:53 PM on Thursday 23 Oct 2014 (Local Time) from KAWM Reporting Station
Clear Clear  
Wind Chill: 61°   Ceiling: Unl
Heat Index: 61°   Visibility: 10mi
Dew Point: 45°   Wind: 7mph
Humidity: 56%   Direction: 20°NNE
Pressure: 30.13"   Gusts: NA
Location:  35.21°N, 90.2°W
Report Text: KAWM 232153Z AUTO 02006KT 10SM CLR 16/07 A3013 RMK AO2 SLP202 T01610072
Loading
Personal Weather Stations






























Interactive Weather Map
Tropical Storm Tracking
New forecast layout! Learn more

10-Day Weather Forecast

Advertisements
Track Severe Weather on mobile